createdAt,value
2023-05-16T00:02:45.276Z,5.00
2023-05-16T00:05:48.146Z,5.60
2023-05-16T00:08:49.846Z,4.50
2023-05-16T00:11:51.669Z,5.40
2023-05-16T00:14:53.307Z,5.67
2023-05-16T00:17:58.596Z,5.07
2023-05-16T00:21:00.373Z,5.13
2023-05-16T00:24:02.005Z,5.07
2023-05-16T00:27:04.205Z,4.10
2023-05-16T00:30:06.690Z,4.10
2023-05-16T00:33:08.669Z,4.00
2023-05-16T00:36:10.661Z,4.67
2023-05-16T00:39:12.263Z,4.40
2023-05-16T00:42:13.830Z,4.50
2023-05-16T00:45:15.538Z,4.40
2023-05-16T00:48:18.633Z,4.70
2023-05-16T00:51:20.390Z,4.40
2023-05-16T00:54:23.569Z,3.83
2023-05-16T00:57:25.298Z,4.03
2023-05-16T01:00:27.322Z,4.67
2023-05-16T01:03:29.533Z,5.23
2023-05-16T01:06:31.557Z,4.87
2023-05-16T01:09:33.246Z,4.40
2023-05-16T01:12:49.316Z,5.00
2023-05-16T01:15:56.466Z,4.73
2023-05-16T01:19:00.630Z,4.00
2023-05-16T01:22:29.300Z,4.47
2023-05-16T01:25:31.516Z,4.93
2023-05-16T01:28:34.827Z,4.87
2023-05-16T01:31:36.527Z,5.30
2023-05-16T01:34:38.197Z,4.87
2023-05-16T01:38:00.070Z,5.03
2023-05-16T01:41:15.313Z,5.27
2023-05-16T01:44:35.658Z,5.30
2023-05-16T01:47:40.153Z,5.50
2023-05-16T01:50:44.919Z,5.37
2023-05-16T01:53:49.916Z,5.43
2023-05-16T01:56:52.692Z,5.33
2023-05-16T01:59:54.347Z,5.50
2023-05-16T02:02:56.095Z,5.57
2023-05-16T02:05:57.946Z,5.53
2023-05-16T02:08:59.578Z,5.67
2023-05-16T02:12:01.213Z,5.27
2023-05-16T02:15:04.142Z,5.20
2023-05-16T02:18:05.824Z,5.37
2023-05-16T02:21:07.573Z,5.27
2023-05-16T02:24:11.158Z,5.53
2023-05-16T02:27:12.717Z,5.37
2023-05-16T02:30:14.404Z,5.03
2023-05-16T02:33:16.434Z,5.77
2023-05-16T02:36:18.127Z,5.50
2023-05-16T02:39:19.853Z,4.77
2023-05-16T02:42:21.554Z,5.43
2023-05-16T02:45:23.247Z,5.60
2023-05-16T02:48:25.661Z,4.87
2023-05-16T02:51:27.888Z,5.90
2023-05-16T02:54:29.590Z,6.10
2023-05-16T02:57:31.262Z,5.23
2023-05-16T03:00:33.029Z,5.27
2023-05-16T03:03:36.241Z,5.70
2023-05-16T03:06:37.916Z,5.00
2023-05-16T03:09:39.507Z,5.20
2023-05-16T03:12:41.049Z,5.40
2023-05-16T03:15:42.735Z,5.00
2023-05-16T03:18:44.368Z,5.20
2023-05-16T03:21:46.206Z,5.07
2023-05-16T03:24:48.299Z,6.13
2023-05-16T03:27:50.125Z,5.83
2023-05-16T03:30:53.466Z,5.60
2023-05-16T03:33:55.075Z,6.13
2023-05-16T03:36:56.781Z,6.00
2023-05-16T03:39:58.362Z,5.53
2023-05-16T03:43:02.939Z,5.90
2023-05-16T03:46:04.562Z,5.77
2023-05-16T03:49:06.393Z,5.40
2023-05-16T03:52:08.040Z,5.83
2023-05-16T03:55:09.821Z,6.23
2023-05-16T03:58:12.264Z,5.90
2023-05-16T04:01:14.048Z,5.80
2023-05-16T04:04:15.770Z,5.30
2023-05-16T04:07:17.532Z,5.77
2023-05-16T04:10:19.108Z,5.30
2023-05-16T04:13:20.894Z,5.67
2023-05-16T04:16:23.218Z,6.10
2023-05-16T04:19:24.893Z,5.50
2023-05-16T04:22:29.825Z,5.37
2023-05-16T04:25:31.556Z,5.27
2023-05-16T04:28:33.291Z,5.10
2023-05-16T04:31:35.169Z,4.80
2023-05-16T04:34:39.796Z,5.50
2023-05-16T04:37:42.829Z,5.37
2023-05-16T04:40:44.905Z,5.57
2023-05-16T04:43:46.870Z,5.97
2023-05-16T04:46:48.526Z,5.43
2023-05-16T04:49:50.530Z,6.47
2023-05-16T04:52:53.146Z,5.50
2023-05-16T04:55:56.604Z,5.83
2023-05-16T04:58:58.271Z,5.73
2023-05-16T05:02:00.046Z,5.33
2023-05-16T05:05:02.028Z,5.33
2023-05-16T05:08:04.583Z,5.87
2023-05-16T05:11:06.307Z,5.43
2023-05-16T05:14:08.057Z,5.73
2023-05-16T05:17:09.826Z,6.00
2023-05-16T05:20:12.172Z,5.53
2023-05-16T05:23:13.840Z,6.53
2023-05-16T05:26:15.587Z,7.27
2023-05-16T05:29:17.312Z,8.50
2023-05-16T05:32:18.972Z,7.13
2023-05-16T05:35:21.022Z,6.67
2023-05-16T05:38:22.741Z,9.40
2023-05-16T05:41:24.378Z,7.77
2023-05-16T05:44:26.088Z,7.23
2023-05-16T05:47:27.895Z,6.37
2023-05-16T05:50:29.686Z,7.90
2023-05-16T05:53:31.355Z,5.83
2023-05-16T05:56:32.957Z,6.40
2023-05-16T05:59:34.620Z,7.47
2023-05-16T06:02:36.941Z,5.77
2023-05-16T06:05:38.816Z,6.20
2023-05-16T06:08:41.050Z,4.90
2023-05-16T06:11:43.394Z,6.03
2023-05-16T06:14:45.030Z,5.47
2023-05-16T06:17:46.750Z,5.37
2023-05-16T06:20:48.507Z,4.87
2023-05-16T06:23:50.332Z,5.07
2023-05-16T06:26:52.551Z,5.07
2023-05-16T06:29:54.270Z,5.47
2023-05-16T06:32:56.088Z,5.67
2023-05-16T06:35:57.853Z,5.07
2023-05-16T06:38:59.593Z,4.60
2023-05-16T06:42:01.388Z,4.93
2023-05-16T06:45:07.684Z,5.07
2023-05-16T06:48:09.485Z,4.90
2023-05-16T06:51:11.458Z,5.00
2023-05-16T06:54:13.102Z,5.50
2023-05-16T06:57:17.654Z,5.37
2023-05-16T07:00:19.566Z,4.90
2023-05-16T07:03:21.716Z,4.87
2023-05-16T07:06:23.405Z,4.80
2023-05-16T07:09:25.051Z,5.53
2023-05-16T07:12:26.801Z,5.30
2023-05-16T07:15:28.642Z,5.13
2023-05-16T07:18:30.557Z,5.03
2023-05-16T07:21:32.252Z,4.40
2023-05-16T07:24:33.917Z,4.50
2023-05-16T07:27:35.626Z,4.60
2023-05-16T07:30:37.298Z,4.37
2023-05-16T07:33:38.982Z,5.33
2023-05-16T07:36:41.214Z,4.90
2023-05-16T07:39:43.095Z,4.33
2023-05-16T07:42:44.770Z,4.67
2023-05-16T07:45:46.466Z,4.60
2023-05-16T07:48:48.346Z,4.17
2023-05-16T07:51:50.022Z,4.60
2023-05-16T07:54:52.179Z,4.27
2023-05-16T07:57:54.248Z,4.63
2023-05-16T08:00:56.006Z,4.30
2023-05-16T08:03:57.825Z,5.90
2023-05-16T08:06:59.510Z,5.40
2023-05-16T08:10:01.230Z,5.23
2023-05-16T08:13:03.008Z,5.17
2023-05-16T08:16:05.714Z,4.60
2023-05-16T08:19:07.820Z,5.10
2023-05-16T08:22:09.512Z,5.47
2023-05-16T08:25:11.250Z,6.10
2023-05-16T08:28:13.137Z,6.33
2023-05-16T08:31:14.829Z,4.87
2023-05-16T08:34:16.493Z,5.30
2023-05-16T08:37:18.162Z,4.70
2023-05-16T08:40:20.453Z,5.57
2023-05-16T08:43:22.210Z,5.83
2023-05-16T08:46:24.243Z,6.70
2023-05-16T08:49:27.506Z,5.10
2023-05-16T08:52:31.308Z,5.87
2023-05-16T08:55:33.421Z,6.00
2023-05-16T08:58:35.686Z,6.10
2023-05-16T09:01:37.673Z,5.90
2023-05-16T09:04:41.460Z,5.20
2023-05-16T09:07:43.668Z,5.57
2023-05-16T09:10:45.349Z,6.23
2023-05-16T09:13:47.033Z,7.43
2023-05-16T09:17:07.856Z,6.00
2023-05-16T09:20:18.216Z,4.87
2023-05-16T09:23:24.470Z,6.57
2023-05-16T09:26:26.253Z,5.70
2023-05-16T09:29:27.911Z,7.17
2023-05-16T09:32:31.504Z,6.43
2023-05-16T09:38:37.938Z,9.00
2023-05-16T09:41:39.731Z,5.43
2023-05-16T09:44:41.746Z,6.13
2023-05-16T09:47:47.678Z,5.03
2023-05-16T09:50:53.553Z,6.10
2023-05-16T09:53:55.540Z,7.20
2023-05-16T09:56:57.183Z,7.80
2023-05-16T09:59:59.591Z,6.43
2023-05-16T10:03:04.743Z,6.40
2023-05-16T10:06:07.900Z,5.57
2023-05-16T10:09:13.000Z,6.60
2023-05-16T10:12:15.442Z,4.87
2023-05-16T10:15:17.732Z,4.47
2023-05-16T10:18:21.421Z,4.33
2023-05-16T10:21:23.704Z,4.17
2023-05-16T10:24:39.520Z,4.13
2023-05-16T10:27:42.329Z,4.77
2023-05-16T10:30:45.841Z,4.10
2023-05-16T10:33:47.631Z,4.13
2023-05-16T10:36:49.734Z,4.30
2023-05-16T10:39:51.983Z,3.73
2023-05-16T10:43:01.210Z,4.60
2023-05-16T10:46:04.018Z,3.73
2023-05-16T10:49:24.611Z,4.63
2023-05-16T10:52:33.841Z,5.13
2023-05-16T10:55:36.339Z,6.50
2023-05-16T10:58:40.833Z,4.47
2023-05-16T11:01:42.684Z,5.00
2023-05-16T11:04:51.777Z,6.13
2023-05-16T11:08:04.062Z,5.00
2023-05-16T11:11:24.310Z,5.10
2023-05-16T11:14:36.110Z,4.40
2023-05-16T11:17:44.772Z,4.93
2023-05-16T11:20:51.906Z,4.80
2023-05-16T11:24:12.380Z,4.40
2023-05-16T11:27:14.312Z,4.10
2023-05-16T11:30:17.789Z,4.90
2023-05-16T11:33:19.512Z,4.22
2023-05-16T11:36:25.629Z,4.38
2023-05-16T11:39:27.546Z,6.03
2023-05-16T11:42:31.485Z,5.28
2023-05-16T11:45:33.103Z,4.25
2023-05-16T11:48:36.704Z,4.47
2023-05-16T11:51:39.432Z,4.00
2023-05-16T11:54:41.637Z,4.82
2023-05-16T11:57:43.813Z,3.97
2023-05-16T12:00:51.724Z,4.30
2023-05-16T12:03:58.295Z,4.20
2023-05-16T12:07:01.598Z,4.07
2023-05-16T12:10:09.696Z,4.25
2023-05-16T12:13:11.668Z,4.53
2023-05-16T12:16:13.463Z,4.70
2023-05-16T12:19:15.361Z,4.07
2023-05-16T12:22:18.312Z,4.53
2023-05-16T12:25:27.214Z,4.63
2023-05-16T12:28:36.339Z,4.50
2023-05-16T12:31:39.341Z,4.17
2023-05-16T12:34:49.060Z,4.13
2023-05-16T12:37:53.690Z,4.67
2023-05-16T12:40:58.524Z,4.20
2023-05-16T12:44:07.055Z,4.67
2023-05-16T12:47:13.394Z,4.53
2023-05-16T12:50:16.567Z,4.73
2023-05-16T12:53:18.896Z,4.27
2023-05-16T12:56:20.577Z,4.13
2023-05-16T12:59:22.258Z,5.00
2023-05-16T13:02:24.056Z,4.20
2023-05-16T13:05:25.872Z,4.67
2023-05-16T13:08:28.066Z,4.47
2023-05-16T13:11:29.847Z,5.03
2023-05-16T13:14:31.728Z,4.37
2023-05-16T13:17:37.320Z,4.83
2023-05-16T13:20:39.285Z,4.57
2023-05-16T13:23:41.046Z,4.80
2023-05-16T13:26:42.628Z,4.70
2023-05-16T13:29:44.600Z,4.70
2023-05-16T13:32:46.509Z,4.93
2023-05-16T13:35:48.366Z,4.93
2023-05-16T13:38:50.193Z,4.40
2023-05-16T13:41:52.324Z,4.27
2023-05-16T13:44:54.035Z,4.73
2023-05-16T13:47:55.850Z,5.20
2023-05-16T13:50:57.515Z,5.20
2023-05-16T13:53:59.370Z,5.23
2023-05-16T13:57:02.296Z,4.70
2023-05-16T14:03:17.770Z,5.10
2023-05-16T14:06:19.508Z,4.60
2023-05-16T14:09:21.233Z,5.20
2023-05-16T14:12:22.892Z,4.80
2023-05-16T14:15:24.636Z,4.60
2023-05-16T14:18:28.839Z,4.60
2023-05-16T14:21:30.720Z,4.60
2023-05-16T14:24:32.462Z,4.90
2023-05-16T14:27:34.243Z,5.33
2023-05-16T14:30:37.304Z,6.00
2023-05-16T14:33:41.118Z,4.93
2023-05-16T14:36:42.940Z,5.70
2023-05-16T14:39:46.586Z,5.83
2023-05-16T14:42:48.361Z,4.77
2023-05-16T14:45:50.194Z,4.80
2023-05-16T14:48:51.968Z,4.73
2023-05-16T14:51:53.685Z,5.03
2023-05-16T14:54:55.650Z,6.47
2023-05-16T14:57:59.996Z,9.00
2023-05-16T15:01:02.197Z,8.40
2023-05-16T15:04:03.962Z,5.77
2023-05-16T15:07:05.643Z,4.67
2023-05-16T15:10:07.695Z,5.40
2023-05-16T15:13:09.453Z,4.30
2023-05-16T15:16:11.369Z,4.70
2023-05-16T15:19:13.263Z,4.50
2023-05-16T15:22:15.343Z,4.70
2023-05-16T15:25:17.122Z,4.67
2023-05-16T15:28:21.810Z,4.80
2023-05-16T15:31:24.450Z,4.60
2023-05-16T15:34:28.635Z,4.60
2023-05-16T15:37:30.364Z,4.70
2023-05-16T15:40:32.204Z,5.37
2023-05-16T15:43:34.052Z,4.87
2023-05-16T15:46:35.864Z,4.80
2023-05-16T15:49:37.897Z,4.90
2023-05-16T15:52:40.049Z,5.63
2023-05-16T15:55:41.774Z,5.27
2023-05-16T15:58:46.680Z,5.40
2023-05-16T16:01:48.622Z,5.60
2023-05-16T16:04:51.833Z,5.27
2023-05-16T16:07:54.255Z,5.60
2023-05-16T16:10:56.118Z,5.63
2023-05-16T16:13:57.903Z,5.57
2023-05-16T16:16:59.731Z,6.20
2023-05-16T16:20:01.766Z,6.37
2023-05-16T16:23:03.574Z,6.00
2023-05-16T16:26:08.912Z,6.23
2023-05-16T16:29:13.178Z,5.63
2023-05-16T16:32:15.101Z,5.80
2023-05-16T16:35:16.825Z,5.73
2023-05-16T16:38:19.202Z,7.30
2023-05-16T16:41:20.959Z,6.33
2023-05-16T16:44:22.913Z,5.70
2023-05-16T16:47:25.420Z,5.90
2023-05-16T16:50:30.363Z,9.97
2023-05-16T16:53:32.965Z,6.33
2023-05-16T16:56:37.741Z,6.90
2023-05-16T16:59:39.565Z,6.90
2023-05-16T17:02:41.873Z,7.23
2023-05-16T17:05:45.104Z,7.27
2023-05-16T17:08:46.877Z,6.57
2023-05-16T17:11:49.376Z,7.70
2023-05-16T17:14:51.358Z,11.03
2023-05-16T17:17:53.320Z,12.80
2023-05-16T17:20:56.040Z,12.07
2023-05-16T17:24:00.646Z,10.10
2023-05-16T17:27:02.466Z,13.37
2023-05-16T17:30:04.954Z,8.20
2023-05-16T17:33:08.242Z,8.93
2023-05-16T17:36:10.982Z,7.40
2023-05-16T17:39:12.970Z,8.60
2023-05-16T17:42:14.763Z,9.33
2023-05-16T17:45:16.948Z,8.47
2023-05-16T17:48:19.149Z,9.23
2023-05-16T17:51:20.867Z,9.70
2023-05-16T17:54:22.892Z,7.40
2023-05-16T17:57:24.618Z,8.67
2023-05-16T18:00:29.271Z,8.50
2023-05-16T18:03:31.183Z,11.93
2023-05-16T18:06:33.554Z,9.30
2023-05-16T18:09:35.700Z,8.37
2023-05-16T18:12:38.881Z,8.80
2023-05-16T18:15:41.114Z,9.83
2023-05-16T18:18:43.165Z,8.03
2023-05-16T18:21:45.331Z,7.20
2023-05-16T18:24:47.097Z,8.00
2023-05-16T18:27:48.881Z,9.97
2023-05-16T18:30:50.573Z,7.80
2023-05-16T18:33:52.272Z,7.33
2023-05-16T18:36:53.948Z,8.17
2023-05-16T18:39:55.707Z,7.80
2023-05-16T18:42:58.793Z,6.90
2023-05-16T18:46:00.808Z,7.90
2023-05-16T18:49:02.517Z,7.40
2023-05-16T18:52:05.434Z,7.20
2023-05-16T18:55:07.459Z,6.20
2023-05-16T18:58:09.293Z,7.13
2023-05-16T19:01:11.440Z,7.50
2023-05-16T19:04:13.187Z,8.17
2023-05-16T19:07:15.118Z,7.87
2023-05-16T19:10:17.118Z,7.10
2023-05-16T19:13:18.980Z,6.87
2023-05-16T19:16:20.933Z,6.00
2023-05-16T19:19:23.103Z,6.00
2023-05-16T19:22:24.993Z,5.90
2023-05-16T19:25:27.139Z,5.40
2023-05-16T19:28:29.582Z,5.40
2023-05-16T19:31:31.962Z,4.93
2023-05-16T19:34:34.037Z,5.83
2023-05-16T19:37:35.764Z,5.43
2023-05-16T19:40:37.440Z,5.53
2023-05-16T19:43:39.203Z,5.23
2023-05-16T19:46:41.325Z,4.97
2023-05-16T19:49:42.918Z,5.33
2023-05-16T19:52:44.748Z,5.37
2023-05-16T19:55:47.953Z,4.83
2023-05-16T19:58:51.331Z,5.10
2023-05-16T20:01:56.745Z,5.37
2023-05-16T20:04:58.819Z,5.27
2023-05-16T20:08:00.578Z,5.90
2023-05-16T20:11:02.719Z,5.67
2023-05-16T20:14:04.467Z,5.83
2023-05-16T20:17:06.607Z,5.37
2023-05-16T20:20:12.173Z,5.23
2023-05-16T20:23:13.860Z,4.70
2023-05-16T20:26:15.961Z,4.80
2023-05-16T20:29:17.779Z,4.33
2023-05-16T20:32:20.032Z,4.50
2023-05-16T20:35:21.901Z,4.47
2023-05-16T20:38:23.766Z,4.70
2023-05-16T20:41:26.206Z,4.97
2023-05-16T20:44:29.392Z,4.50
2023-05-16T20:47:31.196Z,4.77
2023-05-16T20:50:36.127Z,4.10
2023-05-16T20:53:37.978Z,3.77
2023-05-16T20:56:39.736Z,3.93
2023-05-16T20:59:41.787Z,4.20
2023-05-16T21:02:43.549Z,3.43
2023-05-16T21:05:45.621Z,4.23
2023-05-16T21:08:47.279Z,3.50
2023-05-16T21:11:49.817Z,4.00
2023-05-16T21:14:51.625Z,3.50
2023-05-16T21:17:53.332Z,4.10
2023-05-16T21:20:55.085Z,3.50
2023-05-16T21:23:56.963Z,4.10
2023-05-16T21:26:58.630Z,4.10
2023-05-16T21:30:00.345Z,3.63
2023-05-16T21:33:02.377Z,3.90
2023-05-16T21:36:04.262Z,4.10
2023-05-16T21:39:06.284Z,4.00
2023-05-16T21:42:08.018Z,3.93
2023-05-16T21:45:12.702Z,4.13
2023-05-16T21:48:14.600Z,4.63
2023-05-16T21:51:16.339Z,5.10
2023-05-16T21:54:17.980Z,5.20
2023-05-16T21:57:20.049Z,5.70
2023-05-16T22:00:21.739Z,4.83
2023-05-16T22:03:24.336Z,4.40
2023-05-16T22:06:26.206Z,5.40
2023-05-16T22:09:27.811Z,4.67
2023-05-16T22:12:29.524Z,4.63
2023-05-16T22:15:31.327Z,4.63
2023-05-16T22:18:33.675Z,5.43
2023-05-16T22:21:36.138Z,4.50
2023-05-16T22:24:38.020Z,4.70
2023-05-16T22:27:39.760Z,4.93
2023-05-16T22:30:41.434Z,4.83
2023-05-16T22:33:43.257Z,4.73
2023-05-16T22:36:44.948Z,4.97
2023-05-16T22:39:46.748Z,4.83
2023-05-16T22:42:48.522Z,6.13
2023-05-16T22:45:51.651Z,5.67
2023-05-16T22:48:53.516Z,6.23
2023-05-16T22:51:55.222Z,6.23
2023-05-16T22:54:58.558Z,6.30
2023-05-16T22:58:00.824Z,6.43
2023-05-16T23:01:02.648Z,5.93
2023-05-16T23:04:04.563Z,4.87
2023-05-16T23:07:15.890Z,4.53
2023-05-16T23:10:17.533Z,4.30
2023-05-16T23:13:19.196Z,3.90
2023-05-16T23:16:21.064Z,4.17
2023-05-16T23:19:22.889Z,4.10
2023-05-16T23:22:24.608Z,4.80
2023-05-16T23:25:26.651Z,5.20
2023-05-16T23:28:28.580Z,5.17
2023-05-16T23:31:30.694Z,5.00
2023-05-16T23:34:32.419Z,5.27
2023-05-16T23:37:34.136Z,6.10
2023-05-16T23:40:37.122Z,6.53
2023-05-16T23:43:38.785Z,6.07
2023-05-16T23:46:40.527Z,7.10
2023-05-16T23:49:42.272Z,6.57
2023-05-16T23:52:43.880Z,6.83
2023-05-16T23:55:46.108Z,7.60
2023-05-16T23:58:49.229Z,7.43
